createdAt,value
2023-03-21T12:44:46.990Z,10.20
2023-03-21T12:47:26.863Z,10.30
2023-03-21T12:50:04.726Z,10.30
2023-03-21T12:52:38.957Z,10.20
2023-03-21T12:55:17.765Z,10.30
2023-03-21T12:58:10.087Z,10.20
2023-03-21T13:00:44.088Z,10.20
2023-03-21T13:03:27.644Z,10.20
2023-03-21T13:06:06.448Z,10.30
2023-03-21T13:08:43.482Z,10.20
2023-03-21T13:11:15.222Z,10.20
2023-03-21T13:13:52.717Z,10.20
2023-03-21T13:16:27.863Z,10.20
2023-03-21T13:19:10.582Z,10.20
2023-03-21T13:21:52.388Z,10.20
2023-03-21T13:24:43.706Z,10.20
2023-03-21T13:27:28.363Z,10.20
2023-03-21T13:30:06.270Z,10.20
2023-03-21T13:32:38.329Z,10.20
2023-03-21T13:35:27.597Z,10.20
2023-03-21T13:38:12.804Z,10.20
2023-03-21T13:40:57.847Z,10.20
2023-03-21T13:43:43.345Z,10.20
2023-03-21T13:46:13.559Z,10.20
2023-03-21T13:48:57.825Z,10.20
2023-03-21T13:51:36.827Z,10.20
2023-03-21T13:54:29.844Z,10.20
2023-03-21T13:57:01.160Z,10.30
2023-03-21T13:59:41.432Z,10.20
2023-03-21T14:02:32.631Z,10.30
2023-03-21T14:05:17.233Z,10.20
2023-03-21T14:07:47.402Z,10.30
2023-03-21T14:10:35.774Z,10.30
2023-03-21T14:13:04.733Z,10.30
2023-03-21T14:15:49.744Z,10.20
2023-03-21T14:18:52.307Z,10.30
2023-03-21T14:21:25.705Z,10.30
2023-03-21T14:23:59.252Z,10.30
2023-03-21T14:26:30.224Z,10.20
2023-03-21T14:28:56.863Z,10.20
2023-03-21T14:31:23.804Z,10.20
2023-03-21T14:33:53.998Z,10.20
2023-03-21T14:36:25.578Z,10.20
2023-03-21T14:39:25.893Z,10.20
2023-03-21T14:42:01.003Z,10.20
2023-03-21T14:44:44.108Z,10.20
2023-03-21T14:47:20.787Z,10.20
2023-03-21T14:49:49.439Z,10.30
2023-03-21T14:52:31.693Z,10.20
2023-03-21T14:55:00.183Z,10.20
2023-03-21T14:57:29.719Z,10.20
2023-03-21T15:00:00.340Z,10.20
2023-03-21T15:02:31.359Z,10.20
2023-03-21T15:05:05.178Z,10.20
2023-03-21T15:07:34.453Z,10.20
2023-03-21T15:10:04.915Z,10.20
2023-03-21T15:12:32.955Z,10.20
2023-03-21T15:15:01.613Z,10.20
2023-03-21T15:17:29.019Z,10.20
2023-03-21T15:19:55.596Z,10.20
2023-03-21T15:22:41.379Z,10.20
2023-03-21T15:25:13.504Z,10.20
2023-03-21T15:27:41.892Z,10.10
2023-03-21T15:30:19.713Z,10.10
2023-03-21T15:32:47.451Z,10.10
2023-03-21T15:35:21.023Z,10.10
2023-03-21T15:37:58.727Z,10.10
2023-03-21T15:40:31.596Z,10.10
2023-03-21T15:43:19.087Z,10.10
2023-03-21T15:45:54.932Z,10.10
2023-03-21T15:48:26.195Z,10.10
2023-03-21T15:51:07.419Z,10.10
2023-03-21T15:53:36.112Z,10.00
2023-03-21T15:56:06.230Z,10.00
2023-03-21T15:58:44.828Z,10.00
2023-03-21T16:01:29.404Z,10.00
2023-03-21T16:04:01.982Z,10.00
2023-03-21T16:06:35.410Z,10.00
2023-03-21T16:09:21.996Z,10.00
2023-03-21T16:11:50.752Z,9.90
2023-03-21T16:14:21.792Z,10.00
2023-03-21T16:16:49.768Z,9.90
2023-03-21T16:19:17.197Z,10.00
2023-03-21T16:21:44.113Z,9.90
2023-03-21T16:24:12.515Z,9.90
2023-03-21T16:26:45.964Z,9.90
2023-03-21T16:29:14.935Z,9.90
2023-03-21T16:31:42.122Z,9.90
2023-03-21T16:34:08.832Z,9.90
2023-03-21T16:36:41.062Z,9.80
2023-03-21T16:39:17.261Z,9.90
2023-03-21T16:41:43.880Z,9.80
2023-03-21T16:44:11.722Z,9.80
2023-03-21T16:46:38.417Z,9.80
2023-03-21T16:49:05.564Z,9.80
2023-03-21T16:51:35.581Z,9.80
2023-03-21T16:54:02.943Z,9.80
2023-03-21T16:56:50.506Z,9.80
2023-03-21T16:59:17.213Z,9.70
2023-03-21T17:01:45.855Z,9.70
2023-03-21T17:04:12.918Z,9.70
2023-03-21T17:06:50.654Z,9.70
2023-03-21T17:09:23.233Z,9.70
2023-03-21T17:11:50.043Z,9.70
2023-03-21T17:14:21.398Z,9.70
2023-03-21T17:16:50.269Z,9.70
2023-03-21T17:19:23.852Z,9.70
2023-03-21T17:21:50.459Z,9.70
2023-03-21T17:24:17.348Z,9.70
2023-03-21T17:26:44.155Z,9.70
2023-03-21T17:29:14.834Z,9.70
2023-03-21T17:31:42.299Z,9.70
2023-03-21T17:34:09.595Z,9.70
2023-03-21T17:36:39.605Z,9.70
2023-03-21T17:39:08.789Z,9.70
2023-03-21T17:41:35.857Z,9.70
2023-03-21T17:44:03.259Z,9.70
2023-03-21T17:46:37.094Z,9.70
2023-03-21T17:49:12.636Z,9.70
2023-03-21T17:51:39.898Z,9.70
2023-03-21T17:54:06.600Z,9.70
2023-03-21T17:56:34.589Z,9.70
2023-03-21T17:59:07.330Z,9.70
2023-03-21T18:01:35.380Z,9.70
2023-03-21T18:04:04.942Z,9.70
2023-03-21T18:06:33.872Z,9.70
2023-03-21T18:09:04.112Z,9.60
2023-03-21T18:11:30.813Z,9.70
2023-03-21T18:14:10.268Z,9.60
2023-03-21T18:16:42.179Z,9.70
2023-03-21T18:19:10.875Z,9.60
2023-03-21T18:21:40.761Z,9.60
2023-03-21T18:24:07.774Z,9.60
2023-03-21T18:26:34.816Z,9.60
2023-03-21T18:32:04.273Z,9.60
2023-03-21T18:34:31.979Z,9.60
2023-03-21T18:36:58.628Z,9.60
2023-03-21T18:39:25.609Z,9.60
2023-03-21T18:41:52.601Z,9.60
2023-03-21T18:44:25.056Z,9.60
2023-03-21T18:46:51.924Z,9.50
2023-03-21T18:50:02.005Z,9.60
2023-03-21T18:52:06.181Z,9.60
2023-03-21T18:54:33.059Z,9.50
2023-03-21T18:57:34.661Z,9.50
2023-03-21T18:59:47.754Z,9.50
2023-03-21T19:02:18.256Z,9.50
2023-03-21T19:04:47.201Z,9.50
2023-03-21T19:07:14.653Z,9.50
2023-03-21T19:12:28.487Z,9.50
2023-03-21T19:14:55.171Z,9.50
2023-03-21T19:20:11.872Z,9.40
2023-03-21T19:22:38.512Z,9.40
2023-03-21T19:25:05.846Z,9.50
2023-03-21T19:27:34.195Z,9.40
2023-03-21T19:30:13.371Z,9.50
2023-03-21T19:32:41.273Z,9.40
2023-03-21T19:35:08.620Z,9.50
2023-03-21T19:37:38.340Z,9.40
2023-03-21T19:40:07.463Z,9.50
2023-03-21T19:42:36.345Z,9.50
2023-03-21T19:45:05.508Z,9.50
2023-03-21T19:47:37.803Z,9.50
2023-03-21T19:52:52.161Z,9.50
2023-03-21T19:55:18.696Z,9.40
2023-03-21T19:57:48.644Z,9.50
2023-03-21T20:00:18.723Z,9.50
2023-03-21T20:02:47.040Z,9.50
2023-03-21T20:05:16.119Z,9.50
2023-03-21T20:07:42.752Z,9.50
2023-03-21T20:10:10.904Z,9.50
2023-03-21T20:12:37.568Z,9.50
2023-03-21T20:15:16.700Z,9.50
2023-03-21T20:17:45.488Z,9.50
2023-03-21T20:20:17.337Z,9.50
2023-03-21T20:23:07.538Z,9.50
2023-03-21T20:25:35.833Z,9.50
2023-03-21T20:28:25.083Z,9.50
2023-03-21T20:30:53.083Z,9.50
2023-03-21T20:33:20.142Z,9.50
2023-03-21T20:36:29.418Z,9.50
2023-03-21T20:38:35.702Z,9.50
2023-03-21T20:41:04.655Z,9.50
2023-03-21T20:46:18.538Z,9.50
2023-03-21T20:48:48.755Z,9.50
2023-03-21T20:52:27.466Z,9.50
2023-03-21T20:54:04.685Z,9.50
2023-03-21T20:56:31.290Z,9.50
2023-03-21T20:59:12.111Z,9.50
2023-03-21T21:01:43.058Z,9.50
2023-03-21T21:04:10.210Z,9.50
2023-03-21T21:06:36.887Z,9.50
2023-03-21T21:09:04.339Z,9.50
2023-03-21T21:14:17.703Z,9.50
2023-03-21T21:16:44.869Z,9.50
2023-03-21T21:19:11.474Z,9.50
2023-03-21T21:21:44.358Z,9.50
2023-03-21T21:24:11.158Z,9.50
2023-03-21T21:26:40.780Z,9.50
2023-03-21T21:29:07.347Z,9.50
2023-03-21T21:31:34.737Z,9.50
2023-03-21T21:34:03.057Z,9.50
2023-03-21T21:36:29.610Z,9.50
2023-03-21T21:38:56.124Z,9.50
2023-03-21T21:41:24.226Z,9.50
2023-03-21T21:43:50.865Z,9.50
2023-03-21T21:46:17.450Z,9.40
2023-03-21T21:48:44.106Z,9.40
2023-03-21T21:51:11.000Z,9.40
2023-03-21T21:53:38.795Z,9.40
2023-03-21T21:56:10.803Z,9.40
2023-03-21T21:58:38.944Z,9.40
2023-03-21T22:01:07.007Z,9.40
2023-03-21T22:03:40.905Z,9.40
2023-03-21T22:06:09.241Z,9.40
2023-03-21T22:08:36.009Z,9.40
2023-03-21T22:11:04.028Z,9.40
2023-03-21T22:13:31.159Z,9.40
2023-03-21T22:15:57.760Z,9.40
2023-03-21T22:18:24.267Z,9.40
2023-03-21T22:20:51.108Z,9.30
2023-03-21T22:23:19.334Z,9.30
2023-03-21T22:25:52.466Z,9.30
2023-03-21T22:28:22.106Z,9.30
2023-03-21T22:30:48.848Z,9.30
2023-03-21T22:33:15.672Z,9.30
2023-03-21T22:35:42.252Z,9.30
2023-03-21T22:38:08.872Z,9.30
2023-03-21T22:40:35.672Z,9.30
2023-03-21T22:43:02.634Z,9.30
2023-03-21T22:45:29.205Z,9.20
2023-03-21T22:47:55.802Z,9.20
2023-03-21T22:50:22.362Z,9.20
2023-03-21T22:52:48.898Z,9.20
2023-03-21T22:55:15.532Z,9.20
2023-03-21T22:57:42.065Z,9.20
2023-03-21T23:00:13.225Z,9.10
2023-03-21T23:02:41.344Z,9.10
2023-03-21T23:05:09.650Z,9.10
2023-03-21T23:07:36.274Z,9.10
2023-03-21T23:10:04.991Z,9.00
2023-03-21T23:12:31.783Z,9.00
2023-03-21T23:14:58.372Z,9.00
2023-03-21T23:17:24.996Z,9.00
2023-03-21T23:19:51.535Z,8.90
2023-03-21T23:22:18.562Z,8.90
2023-03-21T23:24:45.288Z,8.90
2023-03-21T23:27:14.113Z,8.90
2023-03-21T23:29:40.631Z,8.90
2023-03-21T23:32:07.169Z,8.80
2023-03-21T23:34:33.743Z,8.80
2023-03-21T23:37:00.373Z,8.80
2023-03-21T23:39:28.165Z,8.80
2023-03-21T23:41:54.710Z,8.80
2023-03-21T23:44:21.256Z,8.80
2023-03-21T23:46:47.753Z,8.70
2023-03-21T23:49:15.225Z,8.70
2023-03-21T23:51:42.046Z,8.70
2023-03-21T23:54:08.992Z,8.70
2023-03-21T23:56:36.366Z,8.70
2023-03-21T23:59:03.705Z,8.70
